createdAt,value
2023-05-02T00:01:54.938Z,100561.09
2023-05-02T00:04:24.896Z,100554.44
2023-05-02T00:06:53.015Z,100557.53
2023-05-02T00:09:19.748Z,100558.91
2023-05-02T00:11:45.847Z,100555.56
2023-05-02T00:14:12.373Z,100550.84
2023-05-02T00:16:38.524Z,100553.94
2023-05-02T00:19:05.057Z,100545.97
2023-05-02T00:21:32.219Z,100545.78
2023-05-02T00:23:59.306Z,100541.75
2023-05-02T00:26:26.823Z,100546.00
2023-05-02T00:28:53.190Z,100549.91
2023-05-02T00:31:19.370Z,100540.28
2023-05-02T00:33:45.817Z,100543.53
2023-05-02T00:36:16.727Z,100538.25
2023-05-02T00:38:44.081Z,100538.41
2023-05-02T00:41:10.552Z,100535.88
2023-05-02T00:43:38.879Z,100535.69
2023-05-02T00:46:06.983Z,100530.44
2023-05-02T00:48:34.183Z,100542.66
2023-05-02T00:51:04.304Z,100540.97
2023-05-02T00:53:31.383Z,100537.94
2023-05-02T00:55:58.694Z,100545.75
2023-05-02T00:58:26.182Z,100532.34
2023-05-02T01:01:03.704Z,100534.06
2023-05-02T01:03:40.064Z,100530.00
2023-05-02T01:06:23.531Z,100534.53
2023-05-02T01:08:58.681Z,100532.16
2023-05-02T01:11:38.803Z,100533.53
2023-05-02T01:14:09.678Z,100535.22
2023-05-02T01:16:41.301Z,100533.41
2023-05-02T01:19:21.378Z,100532.41
2023-05-02T01:21:48.706Z,100527.31
2023-05-02T01:24:24.425Z,100525.97
2023-05-02T01:26:57.934Z,100533.63
2023-05-02T01:29:28.800Z,100528.69
2023-05-02T01:31:57.974Z,100533.50
2023-05-02T01:34:27.031Z,100526.34
2023-05-02T01:36:56.439Z,100535.19
2023-05-02T01:39:25.238Z,100525.38
2023-05-02T01:41:55.974Z,100533.69
2023-05-02T01:44:24.816Z,100538.97
2023-05-02T01:46:54.309Z,100532.19
2023-05-02T01:49:23.596Z,100531.72
2023-05-02T01:51:51.196Z,100530.81
2023-05-02T01:54:19.704Z,100530.50
2023-05-02T01:56:46.969Z,100530.16
2023-05-02T01:59:18.179Z,100522.34
2023-05-02T02:01:45.379Z,100527.78
2023-05-02T02:04:14.634Z,100534.41
2023-05-02T02:06:46.198Z,100528.50
2023-05-02T02:09:13.542Z,100528.75
2023-05-02T02:11:46.780Z,100524.84
2023-05-02T02:14:27.124Z,100533.69
2023-05-02T02:16:59.418Z,100539.47
2023-05-02T02:19:28.754Z,100546.06
2023-05-02T02:21:58.151Z,100569.53
2023-05-02T02:24:26.013Z,100561.00
2023-05-02T02:26:53.629Z,100559.69
2023-05-02T02:29:20.064Z,100565.34
2023-05-02T02:31:46.154Z,100562.03
2023-05-02T02:34:12.543Z,100564.44
2023-05-02T02:36:56.364Z,100557.66
2023-05-02T02:39:41.460Z,100554.63
2023-05-02T02:42:27.137Z,100556.34
2023-05-02T02:45:12.220Z,100553.25
2023-05-02T02:47:43.862Z,100557.34
2023-05-02T02:50:26.454Z,100552.94
2023-05-02T02:52:58.673Z,100560.28
2023-05-02T02:55:37.773Z,100565.06
2023-05-02T02:58:46.543Z,100569.66
2023-05-02T03:01:19.540Z,100581.03
2023-05-02T03:03:48.778Z,100595.09
2023-05-02T03:06:19.727Z,100593.91
2023-05-02T03:08:46.500Z,100596.16
2023-05-02T03:11:17.655Z,100599.56
2023-05-02T03:13:43.836Z,100601.28
2023-05-02T03:16:33.263Z,100617.09
2023-05-02T03:19:00.368Z,100612.72
2023-05-02T03:21:27.171Z,100619.72
2023-05-02T03:23:55.688Z,100631.63
2023-05-02T03:26:22.108Z,100640.31
2023-05-02T03:28:49.592Z,100635.22
2023-05-02T03:31:20.942Z,100639.47
2023-05-02T03:33:47.805Z,100638.78
2023-05-02T03:36:14.845Z,100651.69
2023-05-02T03:38:40.981Z,100647.94
2023-05-02T03:41:11.169Z,100654.75
2023-05-02T03:43:37.541Z,100654.06
2023-05-02T03:46:07.221Z,100657.28
2023-05-02T03:48:36.176Z,100657.13
2023-05-02T03:51:04.540Z,100661.53
2023-05-02T03:53:37.258Z,100665.97
2023-05-02T03:56:04.136Z,100665.09
2023-05-02T03:58:40.911Z,100681.09
2023-05-02T04:01:14.440Z,100676.81
2023-05-02T04:03:42.152Z,100677.50
2023-05-02T04:06:10.397Z,100669.03
2023-05-02T04:08:36.941Z,100678.19
2023-05-02T04:11:03.637Z,100676.38
2023-05-02T04:13:30.145Z,100685.03
2023-05-02T04:15:57.672Z,100687.06
2023-05-02T04:18:27.673Z,100692.00
2023-05-02T04:20:54.143Z,100689.97
2023-05-02T04:23:22.805Z,100686.41
2023-05-02T04:25:55.508Z,100684.91
2023-05-02T04:28:28.412Z,100689.84
2023-05-02T04:30:55.769Z,100684.94
2023-05-02T04:33:23.905Z,100682.56
2023-05-02T04:35:52.299Z,100687.47
2023-05-02T04:38:20.827Z,100690.88
2023-05-02T04:40:52.303Z,100689.53
2023-05-02T04:43:24.870Z,100693.59
2023-05-02T04:45:58.993Z,100688.50
2023-05-02T04:48:32.967Z,100693.63
2023-05-02T04:50:59.419Z,100684.78
2023-05-02T04:53:27.170Z,100688.19
2023-05-02T04:55:53.816Z,100682.75
2023-05-02T04:58:20.459Z,100694.81
2023-05-02T05:00:54.204Z,100696.50
2023-05-02T05:03:21.284Z,100691.91
2023-05-02T05:05:48.025Z,100693.63
2023-05-02T05:08:16.772Z,100692.28
2023-05-02T05:10:43.487Z,100704.50
2023-05-02T05:13:11.834Z,100693.09
2023-05-02T05:15:39.554Z,100690.06
2023-05-02T05:18:06.345Z,100686.34
2023-05-02T05:20:35.679Z,100691.25
2023-05-02T05:23:03.835Z,100698.06
2023-05-02T05:25:30.652Z,100698.22
2023-05-02T05:27:59.382Z,100698.72
2023-05-02T05:30:26.777Z,100709.94
2023-05-02T05:32:53.517Z,100715.22
2023-05-02T05:35:21.213Z,100718.81
2023-05-02T05:37:47.600Z,100729.84
2023-05-02T05:40:16.462Z,100722.38
2023-05-02T05:42:47.078Z,100720.69
2023-05-02T05:45:22.029Z,100728.53
2023-05-02T05:47:48.438Z,100734.16
2023-05-02T05:50:15.354Z,100738.59
2023-05-02T05:52:43.657Z,100747.97
2023-05-02T05:55:10.621Z,100749.66
2023-05-02T05:57:37.505Z,100752.03
2023-05-02T06:00:05.215Z,100749.84
2023-05-02T06:02:41.810Z,100750.84
2023-05-02T06:06:02.657Z,100759.81
2023-05-02T06:08:28.963Z,100764.72
2023-05-02T06:10:55.314Z,100766.75
2023-05-02T06:13:21.811Z,100773.94
2023-05-02T06:15:49.740Z,100764.19
2023-05-02T06:18:16.142Z,100770.69
2023-05-02T06:20:42.979Z,100779.31
2023-05-02T06:23:09.719Z,100777.41
2023-05-02T06:25:39.464Z,100798.97
2023-05-02T06:28:06.477Z,100802.31
2023-05-02T06:30:33.118Z,100810.00
2023-05-02T06:32:59.795Z,100814.44
2023-05-02T06:35:26.559Z,100809.31
2023-05-02T06:37:52.850Z,100819.00
2023-05-02T06:40:19.485Z,100817.84
2023-05-02T06:42:45.789Z,100829.91
2023-05-02T06:45:12.264Z,100830.72
2023-05-02T06:47:38.652Z,100825.19
2023-05-02T06:50:05.735Z,100831.19
2023-05-02T06:52:31.869Z,100842.19
2023-05-02T06:54:58.339Z,100830.94
2023-05-02T06:57:24.684Z,100849.00
2023-05-02T06:59:51.168Z,100845.63
2023-05-02T07:02:17.485Z,100844.97
2023-05-02T07:04:44.709Z,100844.19
2023-05-02T07:07:10.935Z,100848.59
2023-05-02T07:09:37.624Z,100851.50
2023-05-02T07:12:06.776Z,100854.31
2023-05-02T07:14:34.455Z,100850.22
2023-05-02T07:17:00.916Z,100859.78
2023-05-02T07:19:27.887Z,100867.13
2023-05-02T07:21:54.124Z,100871.19
2023-05-02T07:24:20.566Z,100874.25
2023-05-02T07:26:46.744Z,100876.78
2023-05-02T07:29:13.151Z,100877.66
2023-05-02T07:31:39.704Z,100884.84
2023-05-02T07:34:06.244Z,100883.22
2023-05-02T07:36:32.472Z,100881.53
2023-05-02T07:38:58.896Z,100897.03
2023-05-02T07:41:25.328Z,100897.63
2023-05-02T07:43:51.947Z,100899.75
2023-05-02T07:46:18.217Z,100902.06
2023-05-02T07:48:45.001Z,100916.28
2023-05-02T07:51:11.490Z,100910.56
2023-05-02T07:53:38.135Z,100916.94
2023-05-02T07:56:08.171Z,100921.59
2023-05-02T07:58:36.391Z,100922.44
2023-05-02T08:01:03.255Z,100920.53
2023-05-02T08:03:30.648Z,100918.84
2023-05-02T08:05:57.096Z,100919.03
2023-05-02T08:08:23.527Z,100929.22
2023-05-02T08:10:50.680Z,100928.16
2023-05-02T08:13:17.417Z,100926.69
2023-05-02T08:15:43.795Z,100929.84
2023-05-02T08:18:10.378Z,100937.47
2023-05-02T08:20:36.653Z,100935.38
2023-05-02T08:23:03.068Z,100934.88
2023-05-02T08:25:29.762Z,100944.56
2023-05-02T08:27:58.583Z,100944.72
2023-05-02T08:30:24.795Z,100949.25
2023-05-02T08:32:51.401Z,100950.78
2023-05-02T08:35:17.743Z,100958.84
2023-05-02T08:37:44.298Z,100965.31
2023-05-02T08:40:11.946Z,100969.16
2023-05-02T08:42:42.116Z,100971.50
2023-05-02T08:45:10.518Z,100977.63
2023-05-02T08:47:39.604Z,100979.75
2023-05-02T08:50:06.555Z,100979.41
2023-05-02T08:52:34.037Z,100985.19
2023-05-02T08:55:01.119Z,100976.25
2023-05-02T08:57:30.993Z,100984.97
2023-05-02T08:59:57.811Z,100992.28
2023-05-02T09:02:42.825Z,100984.75
2023-05-02T09:05:11.489Z,100985.19
2023-05-02T09:07:45.704Z,100977.59
2023-05-02T09:10:13.294Z,100981.28
2023-05-02T09:12:40.472Z,100989.41
2023-05-02T09:15:17.589Z,100996.44
2023-05-02T09:17:47.503Z,100998.81
2023-05-02T09:20:15.235Z,101007.38
2023-05-02T09:22:51.970Z,101001.63
2023-05-02T09:25:20.044Z,101006.94
2023-05-02T09:27:54.304Z,101003.50
2023-05-02T09:30:25.928Z,101014.84
2023-05-02T09:32:59.248Z,101019.50
2023-05-02T09:35:25.740Z,101017.38
2023-05-02T09:37:56.103Z,101024.81
2023-05-02T09:40:23.781Z,101019.66
2023-05-02T09:42:50.653Z,101022.94
2023-05-02T09:45:25.063Z,101024.75
2023-05-02T09:47:51.944Z,101027.31
2023-05-02T09:50:37.952Z,101031.66
2023-05-02T09:53:06.900Z,101034.34
2023-05-02T09:55:33.758Z,101041.63
2023-05-02T09:58:00.803Z,101036.22
2023-05-02T10:00:47.158Z,101035.41
2023-05-02T10:03:17.136Z,101036.72
2023-05-02T10:05:46.136Z,101037.78
2023-05-02T10:08:13.550Z,101041.59
2023-05-02T10:10:44.832Z,101033.78
2023-05-02T10:13:12.799Z,101040.06
2023-05-02T10:15:44.017Z,101040.69
2023-05-02T10:18:20.526Z,101041.72
2023-05-02T10:20:57.804Z,101052.09
2023-05-02T10:23:28.602Z,101046.50
2023-05-02T10:25:58.165Z,101053.38
2023-05-02T10:28:26.719Z,101050.63
2023-05-02T10:30:54.067Z,101058.47
2023-05-02T10:33:22.006Z,101062.28
2023-05-02T10:35:49.188Z,101070.34
2023-05-02T10:38:22.239Z,101071.38
2023-05-02T10:40:55.475Z,101077.53
2023-05-02T10:43:28.066Z,101072.19
2023-05-02T10:45:54.995Z,101069.84
2023-05-02T10:48:27.027Z,101068.22
2023-05-02T10:50:54.780Z,101082.19
2023-05-02T10:53:35.924Z,101077.16
2023-05-02T10:56:15.801Z,101073.09
2023-05-02T10:58:48.090Z,101076.47
2023-05-02T11:01:37.146Z,101067.78
2023-05-02T11:04:10.646Z,101062.31
2023-05-02T11:06:55.905Z,101067.59
2023-05-02T11:09:21.959Z,101073.53
2023-05-02T11:11:50.028Z,101076.09
2023-05-02T11:14:25.405Z,101064.63
2023-05-02T11:16:58.122Z,101075.03
2023-05-02T11:19:25.254Z,101087.28
2023-05-02T11:21:54.239Z,101082.41
2023-05-02T11:24:49.579Z,101090.91
2023-05-02T11:27:32.848Z,101089.19
2023-05-02T11:30:06.072Z,101084.97
2023-05-02T11:32:44.940Z,101089.16
2023-05-02T11:35:21.968Z,101106.56
2023-05-02T11:38:09.261Z,101103.97
2023-05-02T11:40:35.546Z,101108.84
2023-05-02T11:43:15.853Z,101113.44
2023-05-02T11:45:42.973Z,101111.97
2023-05-02T11:48:11.863Z,101116.31
2023-05-02T11:50:49.571Z,101114.59
2023-05-02T11:53:22.656Z,101113.00
2023-05-02T11:55:53.932Z,101120.78
2023-05-02T11:58:25.552Z,101118.22
2023-05-02T12:00:53.140Z,101125.72
2023-05-02T12:03:30.947Z,101125.66
2023-05-02T12:06:11.819Z,101129.88
2023-05-02T12:08:40.091Z,101130.44
2023-05-02T12:11:06.623Z,101129.34
2023-05-02T12:13:33.277Z,101142.13
2023-05-02T12:16:00.114Z,101133.56
2023-05-02T12:18:27.143Z,101140.00
2023-05-02T12:20:55.334Z,101142.31
2023-05-02T12:23:24.095Z,101139.38
2023-05-02T12:25:50.337Z,101137.25
2023-05-02T12:28:18.863Z,101143.00
2023-05-02T12:30:47.909Z,101150.19
2023-05-02T12:33:15.955Z,101148.72
2023-05-02T12:35:42.987Z,101156.47
2023-05-02T12:38:09.759Z,101163.69
2023-05-02T12:40:36.611Z,101158.22
2023-05-02T12:43:05.878Z,101161.47
2023-05-02T12:45:33.927Z,101162.09
2023-05-02T12:48:01.963Z,101161.00
2023-05-02T12:50:40.248Z,101164.19
2023-05-02T12:53:08.424Z,101167.69
2023-05-02T12:55:34.796Z,101159.59
2023-05-02T12:58:09.575Z,101166.84
2023-05-02T13:00:38.860Z,101176.28
2023-05-02T13:03:06.228Z,101186.97
2023-05-02T13:05:32.891Z,101194.34
2023-05-02T13:07:59.364Z,101190.34
2023-05-02T13:10:27.188Z,101189.63
2023-05-02T13:12:54.187Z,101199.03
2023-05-02T13:15:21.025Z,101196.47
2023-05-02T13:17:50.305Z,101193.53
2023-05-02T13:20:17.234Z,101201.72
2023-05-02T13:22:43.302Z,101210.06
2023-05-02T13:25:10.002Z,101205.94
2023-05-02T13:27:36.288Z,101205.78
2023-05-02T13:30:06.464Z,101214.19
2023-05-02T13:32:35.026Z,101202.69
2023-05-02T13:35:02.910Z,101215.28
2023-05-02T13:37:29.161Z,101210.06
2023-05-02T13:39:55.755Z,101205.78
2023-05-02T13:42:22.282Z,101212.88
2023-05-02T13:44:48.866Z,101210.19
2023-05-02T13:47:15.169Z,101201.25
2023-05-02T13:49:41.591Z,101212.53
2023-05-02T13:52:08.837Z,101217.78
2023-05-02T13:54:36.017Z,101224.47
2023-05-02T13:57:02.324Z,101222.66
2023-05-02T13:59:28.869Z,101225.41
2023-05-02T14:01:55.406Z,101231.63
2023-05-02T14:04:23.767Z,101232.31
2023-05-02T14:06:50.310Z,101240.41
2023-05-02T14:09:17.233Z,101237.88
2023-05-02T14:11:43.949Z,101240.50
2023-05-02T14:14:11.851Z,101244.38
2023-05-02T14:16:38.930Z,101257.91
2023-05-02T14:19:05.697Z,101250.13
2023-05-02T14:21:31.915Z,101257.97
2023-05-02T14:23:58.569Z,101254.88
2023-05-02T14:26:25.483Z,101264.50
2023-05-02T14:28:52.160Z,101262.78
2023-05-02T14:31:18.426Z,101263.16
2023-05-02T14:33:45.239Z,101263.16
2023-05-02T14:36:11.938Z,101275.28
2023-05-02T14:38:38.452Z,101273.56
2023-05-02T14:41:05.170Z,101275.00
2023-05-02T14:43:31.989Z,101277.47
2023-05-02T14:45:58.226Z,101276.50
2023-05-02T14:48:24.768Z,101281.75
2023-05-02T14:50:51.219Z,101278.97
2023-05-02T14:53:17.870Z,101282.56
2023-05-02T14:55:44.231Z,101285.34
2023-05-02T14:58:11.153Z,101290.75
2023-05-02T15:00:38.266Z,101283.78
2023-05-02T15:03:07.598Z,101289.63
2023-05-02T15:05:35.962Z,101304.84
2023-05-02T15:08:02.532Z,101309.66
2023-05-02T15:10:28.849Z,101308.88
2023-05-02T15:12:55.536Z,101317.44
2023-05-02T15:15:24.640Z,101313.78
2023-05-02T15:17:52.207Z,101320.06
2023-05-02T15:20:18.626Z,101313.53
2023-05-02T15:22:45.010Z,101317.09
2023-05-02T15:25:11.230Z,101327.34
2023-05-02T15:27:37.685Z,101324.56
2023-05-02T15:30:05.869Z,101318.88
2023-05-02T15:32:32.576Z,101321.94
2023-05-02T15:34:58.870Z,101323.34
2023-05-02T15:37:25.409Z,101329.31
2023-05-02T15:39:51.635Z,101323.16
2023-05-02T15:42:18.289Z,101323.53
2023-05-02T15:44:44.880Z,101325.34
2023-05-02T15:47:11.579Z,101325.00
2023-05-02T15:49:38.737Z,101333.16
2023-05-02T15:52:05.416Z,101330.59
2023-05-02T15:54:32.187Z,101332.00
2023-05-02T15:56:59.032Z,101332.47
2023-05-02T15:59:25.683Z,101330.56
2023-05-02T16:01:52.273Z,101340.03
2023-05-02T16:04:18.829Z,101332.16
2023-05-02T16:06:45.884Z,101343.63
2023-05-02T16:09:12.462Z,101345.09
2023-05-02T16:11:39.266Z,101339.00
2023-05-02T16:14:05.722Z,101345.56
2023-05-02T16:16:33.315Z,101348.16
2023-05-02T16:18:59.850Z,101354.50
2023-05-02T16:21:26.708Z,101355.75
2023-05-02T16:23:53.132Z,101357.97
2023-05-02T16:26:20.224Z,101360.38
2023-05-02T16:28:46.584Z,101359.44
2023-05-02T16:31:14.351Z,101359.19
2023-05-02T16:33:42.209Z,101364.78
2023-05-02T16:36:09.566Z,101371.72
2023-05-02T16:38:36.162Z,101383.50
2023-05-02T16:41:06.139Z,101380.66
2023-05-02T16:43:32.785Z,101398.44
2023-05-02T16:46:04.252Z,101389.25
2023-05-02T16:48:31.755Z,101398.16
2023-05-02T16:51:00.220Z,101392.66
2023-05-02T16:53:28.089Z,101396.97
2023-05-02T16:55:56.045Z,101392.00
2023-05-02T16:58:24.053Z,101395.44
2023-05-02T17:00:50.665Z,101407.56
2023-05-02T17:03:16.880Z,101400.91
2023-05-02T17:05:43.614Z,101403.97
2023-05-02T17:08:10.969Z,101408.06
2023-05-02T17:10:37.469Z,101412.84
2023-05-02T17:13:03.611Z,101411.31
2023-05-02T17:15:30.055Z,101431.13
2023-05-02T17:17:56.195Z,101425.31
2023-05-02T17:20:22.894Z,101423.59
2023-05-02T17:22:49.106Z,101423.44
2023-05-02T17:25:15.561Z,101431.63
2023-05-02T17:27:44.626Z,101438.63
2023-05-02T17:30:12.821Z,101442.72
2023-05-02T17:32:39.752Z,101445.28
2023-05-02T17:35:06.738Z,101451.94
2023-05-02T17:37:32.987Z,101453.97
2023-05-02T17:40:01.398Z,101467.28
2023-05-02T17:42:27.764Z,101470.88
2023-05-02T17:44:55.864Z,101460.94
2023-05-02T17:47:22.204Z,101473.75
2023-05-02T17:49:50.452Z,101473.03
2023-05-02T17:52:16.893Z,101471.84
2023-05-02T17:54:44.363Z,101470.53
2023-05-02T17:57:11.663Z,101476.53
2023-05-02T17:59:39.118Z,101488.13
2023-05-02T18:02:08.496Z,101497.31
2023-05-02T18:04:37.064Z,101491.81
2023-05-02T18:07:05.713Z,101495.00
2023-05-02T18:09:32.635Z,101497.03
2023-05-02T18:11:59.797Z,101492.25
2023-05-02T18:14:26.219Z,101507.09
2023-05-02T18:16:52.359Z,101504.34
2023-05-02T18:19:18.897Z,101510.06
2023-05-02T18:21:44.997Z,101508.16
2023-05-02T18:24:11.698Z,101508.63
2023-05-02T18:26:38.118Z,101516.06
2023-05-02T18:29:04.860Z,101518.41
2023-05-02T18:31:31.540Z,101519.41
2023-05-02T18:33:58.082Z,101525.28
2023-05-02T18:36:26.640Z,101524.88
2023-05-02T18:38:56.544Z,101528.34
2023-05-02T18:41:22.868Z,101530.25
2023-05-02T18:43:49.290Z,101535.56
2023-05-02T18:46:15.527Z,101538.66
2023-05-02T18:48:42.833Z,101540.69
2023-05-02T18:51:10.073Z,101539.53
2023-05-02T18:53:37.095Z,101544.81
2023-05-02T18:56:10.746Z,101548.22
2023-05-02T18:58:37.328Z,101550.38
2023-05-02T19:01:15.336Z,101560.38
2023-05-02T19:03:42.912Z,101566.13
2023-05-02T19:06:09.682Z,101571.28
2023-05-02T19:08:36.307Z,101572.69
2023-05-02T19:11:03.560Z,101578.25
2023-05-02T19:13:30.407Z,101581.97
2023-05-02T19:15:56.838Z,101581.56
2023-05-02T19:18:23.732Z,101588.44
2023-05-02T19:20:50.312Z,101592.13
2023-05-02T19:23:20.338Z,101597.91
2023-05-02T19:25:47.301Z,101601.94
2023-05-02T19:28:17.071Z,101600.19
2023-05-02T19:30:44.716Z,101603.09
2023-05-02T19:33:11.635Z,101607.53
2023-05-02T19:35:41.594Z,101602.66
2023-05-02T19:38:08.795Z,101604.81
2023-05-02T19:40:35.381Z,101604.97
2023-05-02T19:43:03.274Z,101614.59
2023-05-02T19:45:29.591Z,101608.31
2023-05-02T19:47:56.441Z,101613.81
2023-05-02T19:50:25.124Z,101629.44
2023-05-02T19:52:51.662Z,101627.28
2023-05-02T19:55:19.564Z,101622.69
2023-05-02T19:57:45.997Z,101626.16
2023-05-02T20:00:13.372Z,101634.06
2023-05-02T20:02:39.845Z,101627.06
2023-05-02T20:05:06.814Z,101638.38
2023-05-02T20:07:33.331Z,101631.34
2023-05-02T20:09:59.787Z,101647.56
2023-05-02T20:12:26.354Z,101647.13
2023-05-02T20:14:52.533Z,101652.00
2023-05-02T20:17:18.930Z,101646.00
2023-05-02T20:19:45.136Z,101657.47
2023-05-02T20:22:11.683Z,101656.16
2023-05-02T20:24:37.875Z,101660.75
2023-05-02T20:27:05.034Z,101664.75
2023-05-02T20:29:31.196Z,101670.06
2023-05-02T20:31:58.662Z,101672.03
2023-05-02T20:34:24.955Z,101674.28
2023-05-02T20:36:51.845Z,101682.34
2023-05-02T20:39:20.923Z,101679.94
2023-05-02T20:41:50.779Z,101680.94
2023-05-02T20:44:19.611Z,101684.94
2023-05-02T20:46:46.096Z,101696.53
2023-05-02T20:49:12.322Z,101691.09
2023-05-02T20:51:38.908Z,101692.63
2023-05-02T20:54:05.309Z,101696.06
2023-05-02T20:56:31.849Z,101693.06
2023-05-02T20:58:58.051Z,101694.69
2023-05-02T21:01:25.512Z,101706.16
2023-05-02T21:03:51.801Z,101709.81
2023-05-02T21:06:20.367Z,101705.81
2023-05-02T21:08:54.415Z,101704.38
2023-05-02T21:11:21.095Z,101705.66
2023-05-02T21:13:59.549Z,101711.34
2023-05-02T21:16:26.186Z,101708.19
2023-05-02T21:18:52.425Z,101701.75
2023-05-02T21:21:18.948Z,101708.00
2023-05-02T21:23:45.317Z,101716.44
2023-05-02T21:26:11.891Z,101703.72
2023-05-02T21:28:38.130Z,101708.69
2023-05-02T21:31:06.190Z,101717.44
2023-05-02T21:33:33.051Z,101721.03
2023-05-02T21:35:59.732Z,101711.75
2023-05-02T21:38:26.514Z,101713.88
2023-05-02T21:40:53.195Z,101714.03
2023-05-02T21:43:19.461Z,101705.72
2023-05-02T21:45:47.294Z,101715.78
2023-05-02T21:48:14.656Z,101709.47
2023-05-02T21:50:44.718Z,101709.72
2023-05-02T21:53:11.700Z,101727.38
2023-05-02T21:55:41.227Z,101720.03
2023-05-02T21:58:09.623Z,101724.34
2023-05-02T22:00:39.480Z,101729.59
2023-05-02T22:03:10.937Z,101727.78
2023-05-02T22:05:39.255Z,101724.53
2023-05-02T22:08:09.239Z,101737.00
2023-05-02T22:10:44.013Z,101732.81
2023-05-02T22:13:12.931Z,101731.19
2023-05-02T22:15:44.887Z,101737.22
2023-05-02T22:18:16.146Z,101754.94
2023-05-02T22:20:47.308Z,101744.59
2023-05-02T22:23:14.951Z,101756.09
2023-05-02T22:25:44.163Z,101755.38
2023-05-02T22:28:13.178Z,101752.31
2023-05-02T22:30:44.544Z,101763.47
2023-05-02T22:33:11.528Z,101756.06
2023-05-02T22:35:38.289Z,101764.75
2023-05-02T22:38:08.062Z,101762.06
2023-05-02T22:40:34.538Z,101764.84
2023-05-02T22:43:01.087Z,101782.19
2023-05-02T22:45:27.536Z,101771.16
2023-05-02T22:47:53.784Z,101768.69
2023-05-02T22:50:20.737Z,101783.19
2023-05-02T22:52:48.588Z,101770.13
2023-05-02T22:55:15.438Z,101777.28
2023-05-02T22:57:41.986Z,101783.19
2023-05-02T23:00:10.286Z,101781.28
2023-05-02T23:02:36.691Z,101784.00
2023-05-02T23:05:03.757Z,101784.13
2023-05-02T23:07:29.897Z,101784.09
2023-05-02T23:09:56.248Z,101782.66
2023-05-02T23:12:22.440Z,101786.03
2023-05-02T23:14:48.800Z,101788.88
2023-05-02T23:17:14.874Z,101786.31
2023-05-02T23:19:41.760Z,101794.72
2023-05-02T23:22:07.975Z,101793.72
2023-05-02T23:24:34.672Z,101798.56
2023-05-02T23:27:00.861Z,101797.97
2023-05-02T23:29:27.834Z,101793.34
2023-05-02T23:31:54.770Z,101798.19
2023-05-02T23:34:21.316Z,101803.47
2023-05-02T23:36:48.035Z,101805.66
2023-05-02T23:39:14.933Z,101806.47
2023-05-02T23:41:41.049Z,101805.72
2023-05-02T23:44:07.506Z,101812.41
2023-05-02T23:46:33.663Z,101810.69
2023-05-02T23:49:00.068Z,101813.41
2023-05-02T23:51:27.689Z,101814.94
2023-05-02T23:53:54.039Z,101810.97
2023-05-02T23:56:20.539Z,101814.16
2023-05-02T23:58:46.913Z,101814.94
